Time;durP1;ratioP1;P1;durP2;ratioP2;P2;SDS_P1;SDS_P2;PMS_P1;PMS_P2;Temp;Humidity;BMP_temperature;BMP_pressure;BME280_temperature;BME280_humidity;BME280_pressure;Samples;Min_cycle;Max_cycle;Signal;HPM_P1;HPM_P2
2023/03/18 00:00:50;;;;;;;1999.90;999.90;;;10.40;99.90;;;;;;4995614;28;20363;-80
2023/03/18 00:03:16;;;;;;;1999.90;999.90;;;10.40;99.90;;;;;;4995664;28;20026;-73
2023/03/18 00:05:42;;;;;;;1999.90;999.90;;;10.40;99.90;;;;;;4995403;28;20018;-73
2023/03/18 00:08:08;;;;;;;1999.90;999.90;;;10.30;99.90;;;;;;5006053;28;20030;-73
2023/03/18 00:10:34;;;;;;;1999.90;999.90;;;10.20;99.90;;;;;;5034863;28;20021;-79
2023/03/18 00:13:01;;;;;;;1999.90;999.90;;;10.20;99.90;;;;;;5032791;28;20547;-79
2023/03/18 00:15:27;;;;;;;1999.90;999.90;;;10.20;99.90;;;;;;5014756;28;20062;-73
2023/03/18 00:17:53;;;;;;;1999.90;999.90;;;10.10;99.90;;;;;;5014177;28;20480;-80
2023/03/18 00:20:27;;;;;;;1999.90;999.90;;;10.00;99.90;;;;;;5014661;28;20119;-80
2023/03/18 00:22:54;;;;;;;1999.90;999.90;;;9.90;99.90;;;;;;5014903;28;20045;-80
2023/03/18 00:25:20;;;;;;;1999.90;999.90;;;9.80;99.90;;;;;;5014795;28;20026;-80
2023/03/18 00:27:45;;;;;;;1999.90;999.90;;;9.70;99.90;;;;;;5014489;28;20034;-73
2023/03/18 00:30:12;;;;;;;1999.90;999.90;;;9.60;99.90;;;;;;5014697;28;20397;-73
2023/03/18 00:32:38;;;;;;;1999.90;999.90;;;9.60;99.90;;;;;;5014906;28;20068;-80
2023/03/18 00:35:04;;;;;;;1999.90;999.90;;;9.50;99.90;;;;;;5014672;28;20128;-80
2023/03/18 00:37:30;;;;;;;1999.90;999.90;;;9.40;99.90;;;;;;5014301;28;20084;-80
2023/03/18 00:40:05;;;;;;;1999.90;999.90;;;9.40;99.90;;;;;;5015046;28;20446;-80
2023/03/18 00:42:37;;;;;;;1999.90;999.90;;;9.30;99.90;;;;;;5034259;28;20104;-73
2023/03/18 00:45:09;;;;;;;1999.90;999.90;;;9.20;99.90;;;;;;5034625;28;20026;-73
2023/03/18 00:47:34;;;;;;;1999.90;999.90;;;9.20;99.90;;;;;;4994696;28;20053;-80
2023/03/18 00:50:00;;;;;;;1999.90;999.90;;;9.20;99.90;;;;;;4994754;28;20030;-79
2023/03/18 00:52:26;;;;;;;1999.90;999.90;;;9.10;99.90;;;;;;4994628;28;20030;-73
2023/03/18 00:54:52;;;;;;;1999.90;999.90;;;9.10;99.90;;;;;;4994523;28;20029;-80
2023/03/18 00:57:18;;;;;;;1999.90;999.90;;;9.10;99.90;;;;;;4994450;28;20030;-73
2023/03/18 00:59:43;;;;;;;1999.90;999.90;;;9.10;99.90;;;;;;4994486;28;20018;-80
2023/03/18 01:02:09;;;;;;;1999.90;999.90;;;9.00;99.90;;;;;;5001581;28;20044;-82
2023/03/18 01:04:35;;;;;;;1999.90;999.90;;;9.00;99.90;;;;;;5013998;28;20052;-82
2023/03/18 01:07:01;;;;;;;1999.90;999.90;;;8.90;99.90;;;;;;5014092;28;20022;-76
2023/03/18 01:09:27;;;;;;;1999.90;999.90;;;8.90;99.90;;;;;;5029461;28;20700;-75
2023/03/18 01:11:52;;;;;;;1999.90;999.90;;;8.90;99.90;;;;;;5033596;28;20017;-83
2023/03/18 01:14:18;;;;;;;1999.90;999.90;;;8.90;99.90;;;;;;5021353;28;20136;-75
2023/03/18 01:16:45;;;;;;;1999.90;999.90;;;9.00;99.90;;;;;;5013310;28;20400;-80
2023/03/18 01:19:12;;;;;;;1999.90;999.90;;;9.00;99.90;;;;;;5013963;28;20033;-80
2023/03/18 01:21:38;;;;;;;1999.90;999.90;;;9.00;99.90;;;;;;5013649;28;20018;-72
2023/03/18 01:24:04;;;;;;;1999.90;999.90;;;9.10;99.90;;;;;;5013401;28;20030;-73
2023/03/18 01:26:30;;;;;;;1999.90;999.90;;;9.10;99.90;;;;;;5012487;28;20489;-80
2023/03/18 01:28:55;;;;;;;1999.90;999.90;;;9.10;99.90;;;;;;5013945;28;20033;-80
2023/03/18 01:31:23;;;;;;;1999.90;999.90;;;9.10;99.90;;;;;;5013647;28;20064;-80
2023/03/18 01:33:48;;;;;;;1999.90;999.90;;;9.20;99.90;;;;;;5013750;28;20072;-73
2023/03/18 01:36:14;;;;;;;1999.90;999.90;;;9.20;99.90;;;;;;5013778;28;20058;-73
2023/03/18 01:38:41;;;;;;;1999.90;999.90;;;9.20;99.90;;;;;;5013336;28;20030;-79
2023/03/18 01:41:07;;;;;;;1999.90;999.90;;;9.20;99.90;;;;;;5023789;28;20028;-80
2023/03/18 01:43:35;;;;;;;1999.90;999.90;;;9.20;99.90;;;;;;5033158;28;20025;-80
2023/03/18 01:46:35;;;;;;;1999.90;999.90;;;9.20;99.90;;;;;;5026087;28;20082;-73
2023/03/18 01:49:16;;;;;;;1999.90;999.90;;;9.20;99.90;;;;;;5012938;28;20513;-73
2023/03/18 01:51:47;;;;;;;1999.90;999.90;;;9.20;99.90;;;;;;5013188;28;20434;-80
2023/03/18 01:54:15;;;;;;;1999.90;999.90;;;9.20;99.90;;;;;;5013437;28;20527;-80
2023/03/18 01:56:44;;;;;;;1999.90;999.90;;;9.20;99.90;;;;;;5006543;28;20109;-79
2023/03/18 01:59:11;;;;;;;1999.90;999.90;;;9.20;99.90;;;;;;4993979;28;20385;-73
2023/03/18 02:01:43;;;;;;;1999.90;999.90;;;9.10;99.90;;;;;;4993500;28;20026;-80
2023/03/18 02:04:10;;;;;;;1999.90;999.90;;;9.10;99.90;;;;;;4993926;28;20038;-73
2023/03/18 02:06:37;;;;;;;1999.90;999.90;;;9.20;99.90;;;;;;4993379;28;20034;-80
2023/03/18 02:09:03;;;;;;;1999.90;999.90;;;9.10;99.90;;;;;;5007317;28;20107;-79
2023/03/18 02:11:35;;;;;;;1999.90;999.90;;;9.10;99.90;;;;;;5019179;28;20548;-73
2023/03/18 02:14:02;;;;;;;1999.90;999.90;;;9.10;99.90;;;;;;5019523;28;20041;-73
2023/03/18 02:16:43;;;;;;;1999.90;999.90;;;9.10;99.90;;;;;;5018316;28;20076;-80
2023/03/18 02:19:40;;;;;;;1999.90;999.90;;;9.20;99.90;;;;;;5019816;28;20030;-80
2023/03/18 02:22:29;;;;;;;1999.90;999.90;;;9.20;99.90;;;;;;5034533;28;20049;-80
2023/03/18 02:24:58;;;;;;;1999.90;999.90;;;9.20;99.90;;;;;;5019190;28;20038;-80
2023/03/18 02:27:30;;;;;;;1999.90;999.90;;;9.20;99.90;;;;;;5019304;28;20100;-73
2023/03/18 02:30:02;;;;;;;1999.90;999.90;;;9.30;99.90;;;;;;5019987;28;20022;-81
2023/03/18 02:32:30;;;;;;;1999.90;999.90;;;9.30;99.90;;;;;;5019810;28;20025;-73
2023/03/18 02:34:58;;;;;;;1999.90;999.90;;;9.40;99.90;;;;;;5019830;28;20037;-80
2023/03/18 02:37:23;;;;;;;1999.90;999.90;;;9.40;99.90;;;;;;5019218;28;20022;-73
2023/03/18 02:39:49;;;;;;;1999.90;999.90;;;9.40;99.90;;;;;;5019184;28;20104;-73
2023/03/18 02:42:17;;;;;;;1999.90;999.90;;;9.40;99.90;;;;;;5019556;28;20040;-73
2023/03/18 02:44:45;;;;;;;1999.90;999.90;;;9.40;99.90;;;;;;5019447;28;20105;-80
2023/03/18 02:47:15;;;;;;;1999.90;999.90;;;9.40;99.90;;;;;;5019397;28;20034;-80
2023/03/18 02:49:41;;;;;;;1999.90;999.90;;;9.40;99.90;;;;;;5019378;28;20037;-79
2023/03/18 02:52:07;;;;;;;1999.90;999.90;;;9.40;99.90;;;;;;5019177;28;20489;-73
2023/03/18 02:54:33;;;;;;;1999.90;999.90;;;9.40;99.90;;;;;;5019168;28;20026;-73
2023/03/18 02:57:01;;;;;;;1999.90;999.90;;;9.50;99.90;;;;;;5010299;28;20054;-79
2023/03/18 02:59:27;;;;;;;1999.90;999.90;;;9.50;99.90;;;;;;4999673;28;20028;-73
2023/03/18 03:01:54;;;;;;;1999.90;999.90;;;9.50;99.90;;;;;;4999451;28;20413;-80
2023/03/18 03:04:22;;;;;;;1999.90;999.90;;;9.50;99.90;;;;;;4999331;28;20073;-73
2023/03/18 03:06:49;;;;;;;1999.90;999.90;;;9.50;99.90;;;;;;4999594;28;20081;-73
2023/03/18 03:09:15;;;;;;;1999.90;999.90;;;9.60;99.90;;;;;;5028469;28;20049;-80
2023/03/18 03:11:43;;;;;;;1999.90;999.90;;;9.60;99.90;;;;;;5038618;28;20100;-80
2023/03/18 03:14:10;;;;;;;1999.90;999.90;;;9.60;99.90;;;;;;5028004;28;20028;-79
2023/03/18 03:16:36;;;;;;;1999.90;999.90;;;9.70;99.90;;;;;;5019135;28;20034;-73
2023/03/18 03:19:03;;;;;;;1999.90;999.90;;;9.70;99.90;;;;;;5019200;28;20053;-73
2023/03/18 03:21:29;;;;;;;1999.90;999.90;;;9.80;99.90;;;;;;5016835;28;20033;-79
2023/03/18 03:23:55;;;;;;;1999.90;999.90;;;9.70;99.90;;;;;;5016016;28;20030;-79
2023/03/18 03:26:21;;;;;;;1999.90;999.90;;;9.70;99.90;;;;;;5015793;28;20052;-73
2023/03/18 03:28:47;;;;;;;1999.90;999.90;;;9.80;99.90;;;;;;5015577;28;20470;-79
2023/03/18 03:31:13;;;;;;;1999.90;999.90;;;9.80;99.90;;;;;;5016029;28;20026;-79
2023/03/18 03:33:40;;;;;;;1999.90;999.90;;;9.80;99.90;;;;;;5016010;28;20041;-73
2023/03/18 03:36:15;;;;;;;1999.90;999.90;;;9.90;99.90;;;;;;5015907;28;20466;-79
2023/03/18 03:38:42;;;;;;;1999.90;999.90;;;9.90;99.90;;;;;;5015645;28;20037;-80
2023/03/18 03:41:09;;;;;;;1999.90;999.90;;;10.00;99.90;;;;;;5026551;28;20013;-79
2023/03/18 03:43:39;;;;;;;1999.90;999.90;;;10.00;99.90;;;;;;5035417;28;20025;-79
2023/03/18 03:46:05;;;;;;;1999.90;999.90;;;10.00;99.90;;;;;;5027957;28;20096;-73
2023/03/18 03:48:31;;;;;;;1999.90;999.90;;;10.10;99.90;;;;;;5015434;28;20046;-80
2023/03/18 03:50:57;;;;;;;1999.90;999.90;;;10.10;99.90;;;;;;5015709;28;20412;-80
2023/03/18 03:53:25;;;;;;;1999.90;999.90;;;10.20;99.90;;;;;;5015504;28;20425;-79
2023/03/18 03:55:51;;;;;;;1999.90;999.90;;;10.30;99.90;;;;;;5015360;28;20037;-73
2023/03/18 03:58:17;;;;;;;1999.90;999.90;;;10.30;99.90;;;;;;4995540;28;20501;-73
2023/03/18 04:00:43;;;;;;;1999.90;999.90;;;10.40;99.90;;;;;;4995632;28;20069;-79
2023/03/18 04:03:09;;;;;;;1999.90;999.90;;;10.50;99.90;;;;;;4995789;28;20026;-79
2023/03/18 04:05:36;;;;;;;1999.90;999.90;;;10.50;99.90;;;;;;4995406;28;20093;-80
2023/03/18 04:08:02;;;;;;;1999.90;999.90;;;10.40;99.90;;;;;;5005206;28;20009;-79
2023/03/18 04:10:28;;;;;;;1999.90;999.90;;;10.50;99.90;;;;;;5034262;28;20029;-80
2023/03/18 04:12:54;;;;;;;1999.90;999.90;;;10.50;99.90;;;;;;5034152;28;20030;-73
2023/03/18 04:15:20;;;;;;;1999.90;999.90;;;10.50;99.90;;;;;;5015196;28;20018;-80
2023/03/18 04:17:49;;;;;;;1999.90;999.90;;;10.60;99.90;;;;;;5014327;28;20535;-80
2023/03/18 04:20:16;;;;;;;1999.90;999.90;;;10.60;99.90;;;;;;5015086;28;20095;-73
2023/03/18 04:22:42;;;;;;;1999.90;999.90;;;10.70;99.90;;;;;;5014879;28;20481;-73
2023/03/18 04:25:09;;;;;;;1999.90;999.90;;;10.70;99.90;;;;;;5014611;28;20034;-73
2023/03/18 04:27:36;;;;;;;1999.90;999.90;;;10.80;99.90;;;;;;5013557;28;20033;-79
2023/03/18 04:30:02;;;;;;;1999.90;999.90;;;10.80;99.90;;;;;;5014891;28;20030;-73
2023/03/18 04:32:28;;;;;;;1999.90;999.90;;;10.80;99.90;;;;;;5014755;28;20033;-80
2023/03/18 04:34:54;;;;;;;1999.90;999.90;;;10.80;99.90;;;;;;5014689;28;20050;-73
2023/03/18 04:37:20;;;;;;;1999.90;999.90;;;10.90;99.90;;;;;;5014540;28;20026;-73
2023/03/18 04:39:48;;;;;;;1999.90;999.90;;;10.90;99.90;;;;;;5013015;28;20042;-73
2023/03/18 04:42:16;;;;;;;1999.90;999.90;;;10.90;99.90;;;;;;5034077;28;20083;-80
2023/03/18 04:44:42;;;;;;;1999.90;999.90;;;10.90;99.90;;;;;;5034079;28;20025;-79
2023/03/18 04:47:08;;;;;;;1999.90;999.90;;;10.90;99.90;;;;;;5018136;28;20493;-80
2023/03/18 04:49:34;;;;;;;1999.90;999.90;;;10.90;99.90;;;;;;5014206;28;20039;-73
2023/03/18 04:52:01;;;;;;;1999.90;999.90;;;10.90;99.90;;;;;;5014851;28;20061;-73
2023/03/18 04:54:27;;;;;;;1999.90;999.90;;;10.90;99.90;;;;;;5014312;28;20030;-80
2023/03/18 04:56:53;;;;;;;1999.90;999.90;;;10.80;99.90;;;;;;5006070;28;20102;-79
2023/03/18 04:59:18;;;;;;;1999.90;999.90;;;10.90;99.90;;;;;;4995133;28;20027;-80
2023/03/18 05:01:44;;;;;;;1999.90;999.90;;;10.80;99.90;;;;;;4994788;28;20022;-73
2023/03/18 05:04:10;;;;;;;1999.90;999.90;;;10.80;99.90;;;;;;4994863;28;20034;-73
2023/03/18 05:06:36;;;;;;;1999.90;999.90;;;10.80;99.90;;;;;;5026126;28;20026;-79
2023/03/18 05:09:04;;;;;;;1999.90;999.90;;;10.80;99.90;;;;;;5020113;28;20118;-80
2023/03/18 05:11:30;;;;;;;1999.90;999.90;;;10.70;99.90;;;;;;5033739;28;20023;-78
2023/03/18 05:13:56;;;;;;;1999.90;999.90;;;10.80;99.90;;;;;;5024615;28;20084;-80
2023/03/18 05:16:22;;;;;;;1999.90;999.90;;;10.80;99.90;;;;;;5014182;28;20018;-73
2023/03/18 05:18:48;;;;;;;1999.90;999.90;;;10.80;99.90;;;;;;5014156;28;20539;-80
2023/03/18 05:21:14;;;;;;;1999.90;999.90;;;10.80;99.90;;;;;;5013905;28;20025;-80
2023/03/18 05:23:40;;;;;;;1999.90;999.90;;;10.90;99.90;;;;;;5013770;28;20026;-80
2023/03/18 05:26:06;;;;;;;1999.90;999.90;;;10.80;99.90;;;;;;5013727;28;20484;-80
2023/03/18 05:28:33;;;;;;;1999.90;999.90;;;10.80;99.90;;;;;;5013834;28;20030;-73
2023/03/18 05:30:58;;;;;;;1999.90;999.90;;;10.90;99.90;;;;;;5013902;28;20020;-73
2023/03/18 05:33:24;;;;;;;1999.90;999.90;;;10.90;99.90;;;;;;5013665;28;20030;-79
2023/03/18 05:35:50;;;;;;;1999.90;999.90;;;10.90;99.90;;;;;;5013709;28;20022;-79
2023/03/18 05:38:17;;;;;;;1999.90;999.90;;;11.00;99.90;;;;;;5013538;28;20403;-79
2023/03/18 05:40:43;;;;;;;1999.90;999.90;;;11.00;99.90;;;;;;5013378;28;20041;-80
2023/03/18 05:43:09;;;;;;;1999.90;999.90;;;11.00;99.90;;;;;;5012113;28;20527;-73
2023/03/18 05:45:35;;;;;;;1999.90;999.90;;;11.00;99.90;;;;;;5012672;28;20022;-82
2023/03/18 05:48:00;;;;;;;1999.90;999.90;;;11.10;99.90;;;;;;5013633;28;20374;-81
2023/03/18 05:50:31;;;;;;;1999.90;999.90;;;11.10;99.90;;;;;;5013448;28;20025;-80
2023/03/18 05:52:57;;;;;;;1999.90;999.90;;;11.10;99.90;;;;;;5012188;28;20025;-81
2023/03/18 05:55:23;;;;;;;1999.90;999.90;;;11.10;99.90;;;;;;5013477;28;20026;-79
2023/03/18 05:57:49;;;;;;;1999.90;999.90;;;11.10;99.90;;;;;;4997424;28;20034;-80
2023/03/18 06:00:17;;;;;;;1999.90;999.90;;;11.20;99.90;;;;;;4993770;28;20022;-80
2023/03/18 06:02:43;;;;;;;1999.90;999.90;;;11.30;99.90;;;;;;4993600;28;20552;-73
2023/03/18 06:05:09;;;;;;;1999.90;999.90;;;11.30;99.90;;;;;;4993771;28;20106;-80
2023/03/18 06:07:35;;;;;;;1999.90;999.90;;;11.40;99.90;;;;;;5027238;28;20113;-73
2023/03/18 06:10:01;;;;;;;1999.90;999.90;;;11.40;99.90;;;;;;5032827;28;20018;-73
2023/03/18 06:12:27;;;;;;;1999.90;999.90;;;11.40;99.90;;;;;;5064202;28;20034;-80
2023/03/18 06:14:53;;;;;;;1999.90;999.90;;;11.40;99.90;;;;;;5015797;28;20022;-80
2023/03/18 06:17:19;;;;;;;1999.90;999.90;;;11.30;99.90;;;;;;5013533;28;20481;-74
2023/03/18 06:19:45;;;;;;;1999.90;999.90;;;11.30;99.90;;;;;;5013121;28;20088;-73
2023/03/18 06:22:11;;;;;;;1999.90;999.90;;;11.30;99.90;;;;;;5012991;28;20037;-73
2023/03/18 06:24:37;;;;;;;1999.90;999.90;;;11.30;99.90;;;;;;5012879;28;20026;-80
2023/03/18 06:27:02;;;;;;;1999.90;999.90;;;11.30;99.90;;;;;;5013125;28;20026;-73
2023/03/18 06:29:29;;;;;;;1999.90;999.90;;;11.30;99.90;;;;;;5013221;28;20018;-79
2023/03/18 06:31:55;;;;;;;1999.90;999.90;;;11.40;99.90;;;;;;5013373;28;20018;-80
2023/03/18 06:34:20;;;;;;;1999.90;999.90;;;11.40;99.90;;;;;;5011652;28;20034;-80
2023/03/18 06:36:46;;;;;;;1999.90;999.90;;;11.40;99.90;;;;;;4998849;28;20058;-80
2023/03/18 06:39:12;;;;;;;1999.90;999.90;;;11.40;99.90;;;;;;4993366;28;20037;-73
2023/03/18 06:41:38;;;;;;;1999.90;999.90;;;11.40;99.90;;;;;;5022290;28;20080;-80
2023/03/18 06:44:05;;;;;;;1999.90;999.90;;;11.40;99.90;;;;;;5032922;28;20022;-81
2023/03/18 06:46:30;;;;;;;1999.90;999.90;;;11.40;99.90;;;;;;5021733;28;20049;-80
2023/03/18 06:48:56;;;;;;;1999.90;999.90;;;11.40;99.90;;;;;;5012527;28;20136;-73
2023/03/18 06:51:22;;;;;;;1999.90;999.90;;;11.40;99.90;;;;;;5012886;28;20053;-80
2023/03/18 06:53:47;;;;;;;1999.90;999.90;;;11.40;99.90;;;;;;5012978;28;20053;-80
2023/03/18 06:56:15;;;;;;;1999.90;999.90;;;11.50;99.90;;;;;;5011223;28;20104;-80
2023/03/18 06:58:41;;;;;;;1999.90;999.90;;;11.50;99.90;;;;;;4996812;28;20023;-74
2023/03/18 07:01:07;;;;;;;1999.90;999.90;;;11.50;99.90;;;;;;4996875;28;20077;-73
2023/03/18 07:03:33;;;;;;;1999.90;999.90;;;11.60;99.90;;;;;;4996727;28;20027;-79
2023/03/18 07:06:00;;;;;;;1999.90;999.90;;;11.60;99.90;;;;;;4997111;28;20439;-80
2023/03/18 07:08:25;;;;;;;1999.90;999.90;;;11.60;99.90;;;;;;5012623;28;20030;-81
2023/03/18 07:10:52;;;;;;;1999.90;999.90;;;11.60;99.90;;;;;;5036211;28;20075;-80
2023/03/18 07:13:18;;;;;;;1999.90;999.90;;;11.80;99.90;;;;;;5031127;28;20065;-73
2023/03/18 07:15:44;;;;;;;1999.90;999.90;;;11.90;99.90;;;;;;5016450;28;20101;-80
2023/03/18 07:18:10;;;;;;;1999.90;999.90;;;12.00;99.90;;;;;;5047628;28;20033;-73
2023/03/18 07:20:36;;;;;;;1999.90;999.90;;;12.00;99.90;;;;;;5016550;28;20033;-74
2023/03/18 07:23:02;;;;;;;1999.90;999.90;;;12.00;99.90;;;;;;5015930;28;20037;-80
2023/03/18 07:25:30;;;;;;;1999.90;999.90;;;11.90;99.90;;;;;;5015983;28;20109;-73
2023/03/18 07:27:56;;;;;;;1999.90;999.90;;;11.90;99.90;;;;;;5015799;28;20481;-73
2023/03/18 07:30:22;;;;;;;1999.90;999.90;;;11.90;99.90;;;;;;5016016;28;20026;-73
2023/03/18 07:32:48;;;;;;;1999.90;999.90;;;11.90;99.90;;;;;;5016032;28;20032;-80
2023/03/18 07:35:14;;;;;;;1999.90;999.90;;;11.90;99.90;;;;;;5016281;28;20115;-80
2023/03/18 07:37:40;;;;;;;1999.90;999.90;;;12.00;99.90;;;;;;5015582;28;20101;-73
2023/03/18 07:40:08;;;;;;;1999.90;999.90;;;11.80;99.90;;;;;;5017677;28;20445;-73
2023/03/18 07:42:34;;;;;;;1999.90;999.90;;;11.80;99.90;;;;;;5035430;28;20029;-78
2023/03/18 07:45:00;;;;;;;1999.90;999.90;;;11.70;99.90;;;;;;5035084;28;20021;-80
2023/03/18 07:47:25;;;;;;;1999.90;999.90;;;11.60;99.90;;;;;;5016895;28;20390;-78
2023/03/18 07:49:51;;;;;;;1999.90;999.90;;;11.50;99.90;;;;;;5015387;28;20072;-74
2023/03/18 07:52:18;;;;;;;1999.90;999.90;;;11.50;99.90;;;;;;5015569;28;20026;-74
2023/03/18 07:54:44;;;;;;;1999.90;999.90;;;11.50;99.90;;;;;;5015366;28;20021;-77
2023/03/18 07:57:09;;;;;;;1999.90;999.90;;;11.50;99.90;;;;;;5004925;28;20061;-78
2023/03/18 07:59:36;;;;;;;1999.90;999.90;;;11.50;99.90;;;;;;4995616;28;20070;-77
2023/03/18 08:02:03;;;;;;;1999.90;999.90;;;11.50;99.90;;;;;;4995796;28;20023;-77
2023/03/18 08:04:30;;;;;;;1999.90;999.90;;;11.50;99.90;;;;;;4995687;28;20402;-74
2023/03/18 08:06:56;;;;;;;1999.90;999.90;;;11.50;99.90;;;;;;4995430;28;20069;-77
2023/03/18 08:09:22;;;;;;;1999.90;999.90;;;11.50;99.90;;;;;;5026126;28;20104;-77
2023/03/18 08:11:48;;;;;;;1999.90;999.90;;;11.50;99.90;;;;;;5035005;28;20121;-74
2023/03/18 08:14:14;;;;;;;1999.90;999.90;;;11.60;99.90;;;;;;5022367;28;20025;-76
2023/03/18 08:16:39;;;;;;;1999.90;999.90;;;11.60;99.90;;;;;;5015284;28;20030;-73
2023/03/18 08:19:05;;;;;;;1999.90;999.90;;;11.40;99.90;;;;;;5014592;28;20026;-72
2023/03/18 08:21:31;;;;;;;1999.90;999.90;;;11.20;99.90;;;;;;5015189;28;20022;-73
2023/03/18 08:23:56;;;;;;;1999.90;999.90;;;11.20;99.90;;;;;;5014755;28;20521;-75
2023/03/18 08:26:23;;;;;;;1999.90;999.90;;;11.20;99.90;;;;;;5014854;28;20600;-77
2023/03/18 08:28:48;;;;;;;1999.90;999.90;;;11.30;99.90;;;;;;5014679;28;20101;-73
2023/03/18 08:31:14;;;;;;;1999.90;999.90;;;11.30;99.90;;;;;;5014603;28;20160;-74
2023/03/18 08:33:40;;;;;;;1999.90;999.90;;;11.40;99.90;;;;;;5014683;28;20033;-77
2023/03/18 08:36:07;;;;;;;1999.90;999.90;;;11.40;99.90;;;;;;5014862;28;20076;-77
2023/03/18 08:38:33;;;;;;;1999.90;999.90;;;11.50;99.90;;;;;;5013432;28;20401;-78
2023/03/18 08:40:58;;;;;;;1999.90;999.90;;;11.50;99.90;;;;;;5023817;28;20029;-77
2023/03/18 08:43:24;;;;;;;1999.90;999.90;;;11.60;99.90;;;;;;5034465;28;20028;-75
2023/03/18 08:45:54;;;;;;;1999.90;999.90;;;11.70;99.90;;;;;;5027018;28;20033;-77
2023/03/18 08:48:21;;;;;;;1999.90;999.90;;;11.60;99.90;;;;;;5014668;28;20050;-74
2023/03/18 08:50:47;;;;;;;1999.90;999.90;;;11.60;99.90;;;;;;5014459;28;20069;-77
2023/03/18 08:53:12;;;;;;;1999.90;999.90;;;11.60;99.90;;;;;;5014530;28;20057;-77
2023/03/18 08:55:38;;;;;;;1999.90;999.90;;;11.60;99.90;;;;;;5014287;28;20030;-74
2023/03/18 08:58:05;;;;;;;1999.90;999.90;;;11.60;99.90;;;;;;4996147;28;20109;-74
2023/03/18 09:00:32;;;;;;;1999.90;999.90;;;11.60;99.90;;;;;;4994571;28;20022;-77
2023/03/18 09:02:58;;;;;;;1999.90;999.90;;;11.60;99.90;;;;;;4994650;28;20038;-76
2023/03/18 09:05:24;;;;;;;1999.90;999.90;;;11.60;99.90;;;;;;4994980;28;20030;-77
2023/03/18 09:07:51;;;;;;;1999.90;999.90;;;11.60;99.90;;;;;;5000589;28;20674;-76
2023/03/18 09:10:18;;;;;;;1999.90;999.90;;;11.60;99.90;;;;;;5033771;28;20025;-75
2023/03/18 09:12:45;;;;;;;1999.90;999.90;;;11.60;99.90;;;;;;5019981;28;20112;-77
2023/03/18 09:15:13;;;;;;;1999.90;999.90;;;11.60;99.90;;;;;;5013289;28;20080;-77
2023/03/18 09:17:39;;;;;;;1999.90;999.90;;;11.60;99.90;;;;;;5046045;28;20448;-78
2023/03/18 09:20:10;;;;;;;1999.90;999.90;;;11.60;99.90;;;;;;5013431;28;20152;-77
2023/03/18 09:22:38;;;;;;;1999.90;999.90;;;11.70;99.90;;;;;;5013918;28;20025;-78
2023/03/18 09:25:04;;;;;;;1999.90;999.90;;;11.60;99.90;;;;;;5012851;28;20029;-75
2023/03/18 09:27:30;;;;;;;1999.90;999.90;;;11.60;99.90;;;;;;5013514;28;20033;-78
2023/03/18 09:29:55;;;;;;;1999.90;999.90;;;11.70;99.90;;;;;;5013682;28;20022;-78
2023/03/18 09:32:21;;;;;;;1999.90;999.90;;;11.60;99.90;;;;;;5014095;28;20029;-78
2023/03/18 09:34:47;;;;;;;1999.90;999.90;;;11.60;99.90;;;;;;5013521;28;20061;-74
2023/03/18 09:37:13;;;;;;;1999.90;999.90;;;11.70;99.90;;;;;;5013845;28;20033;-75
2023/03/18 09:39:40;;;;;;;1999.90;999.90;;;11.70;99.90;;;;;;5013294;28;20025;-79
2023/03/18 09:42:19;;;;;;;1999.90;999.90;;;11.80;99.90;;;;;;5031736;28;20387;-75
2023/03/18 09:45:02;;;;;;;1999.90;999.90;;;11.80;99.90;;;;;;5033195;28;20021;-78
2023/03/18 09:47:36;;;;;;;1999.90;999.90;;;11.70;99.90;;;;;;5014289;28;20553;-74
2023/03/18 09:50:31;;;;;;;1999.90;999.90;;;11.80;99.90;;;;;;5013328;28;20030;-78
2023/03/18 09:53:41;;;;;;;1999.90;999.90;;;11.90;99.90;;;;;;5012364;28;20040;-78
2023/03/18 09:56:15;;;;;;;1999.90;999.90;;;11.90;99.90;;;;;;5011247;28;20025;-78
2023/03/18 09:59:24;;;;;;;1999.90;999.90;;;11.90;99.90;;;;;;5011494;28;20026;-78
2023/03/18 10:01:53;;;;;;;1999.90;999.90;;;11.90;99.90;;;;;;4991538;28;20113;-78
2023/03/18 10:04:40;;;;;;;1999.90;999.90;;;11.70;99.90;;;;;;4991513;28;20045;-78
2023/03/18 10:07:18;;;;;;;1999.90;999.90;;;11.70;99.90;;;;;;4991678;28;20117;-79
2023/03/18 10:09:50;;;;;;;1999.90;999.90;;;11.60;99.90;;;;;;4993264;28;20469;-78
2023/03/18 10:13:21;;;;;;;1999.90;999.90;;;11.60;99.90;;;;;;5011171;28;20137;-78
2023/03/18 10:15:57;;;;;;;1999.90;999.90;;;11.60;99.90;;;;;;4949635;28;20154;-74
2023/03/18 10:18:25;;;;;;;1999.90;999.90;;;11.50;99.90;;;;;;4952116;29;20023;-76
2023/03/18 10:21:28;;;;;;;1999.90;999.90;;;11.50;99.90;;;;;;4952700;29;20043;-74
2023/03/18 10:24:28;;;;;;;1999.90;999.90;;;11.50;99.90;;;;;;4952915;29;20070;-78
2023/03/18 10:27:15;;;;;;;1999.90;999.90;;;11.50;99.90;;;;;;4931458;29;20404;-78
2023/03/18 10:30:03;;;;;;;1999.90;999.90;;;11.50;99.90;;;;;;4914685;29;20028;-74
2023/03/18 10:32:41;;;;;;;1999.90;999.90;;;11.50;99.90;;;;;;4918191;29;20132;-77
2023/03/18 10:35:18;;;;;;;1999.90;999.90;;;11.50;99.90;;;;;;4927125;29;20039;-76
2023/03/18 10:38:09;;;;;;;1999.90;999.90;;;11.40;99.90;;;;;;4954574;29;20038;-76
2023/03/18 10:40:38;;;;;;;1999.90;999.90;;;11.40;99.90;;;;;;4954563;28;20035;-78
2023/03/18 10:43:30;;;;;;;1999.90;999.90;;;11.40;99.90;;;;;;4975840;28;20405;-76
2023/03/18 10:46:02;;;;;;;1999.90;999.90;;;11.40;99.90;;;;;;4993153;28;20509;-77
2023/03/18 10:48:48;;;;;;;1999.90;999.90;;;11.40;99.90;;;;;;5016697;28;20050;-76
2023/03/18 10:51:18;;;;;;;1999.90;999.90;;;11.40;99.90;;;;;;5015818;28;20100;-74
2023/03/18 10:54:16;;;;;;;1999.90;999.90;;;11.40;99.90;;;;;;5016988;28;20481;-76
2023/03/18 10:56:42;;;;;;;1999.90;999.90;;;11.40;99.90;;;;;;5008718;28;20038;-76
2023/03/18 10:59:15;;;;;;;1999.90;999.90;;;11.40;99.90;;;;;;4997315;28;20025;-76
2023/03/18 11:01:46;;;;;;;1999.90;999.90;;;11.40;99.90;;;;;;4996333;28;20026;-76
2023/03/18 11:04:20;;;;;;;1999.90;999.90;;;11.40;99.90;;;;;;4996444;28;20105;-77
2023/03/18 11:06:47;;;;;;;1999.90;999.90;;;11.40;99.90;;;;;;4996292;28;20026;-73
2023/03/18 11:09:28;;;;;;;1999.90;999.90;;;11.50;99.90;;;;;;5014764;28;20026;-83
2023/03/18 11:12:02;;;;;;;1999.90;999.90;;;11.50;99.90;;;;;;5016551;28;20051;-76
2023/03/18 11:14:30;;;;;;;1999.90;999.90;;;11.50;99.90;;;;;;5015341;28;20032;-81
2023/03/18 11:17:03;;;;;;;1999.90;999.90;;;11.50;99.90;;;;;;5016209;28;20041;-80
2023/03/18 11:19:40;;;;;;;1999.90;999.90;;;11.50;99.90;;;;;;5048052;28;20029;-91
2023/03/18 11:22:12;;;;;;;1999.90;999.90;;;11.60;99.90;;;;;;5016840;28;20026;-81
2023/03/18 11:24:41;;;;;;;1999.90;999.90;;;11.70;99.90;;;;;;5015880;28;20029;-82
2023/03/18 11:27:13;;;;;;;1999.90;999.90;;;11.90;99.90;;;;;;5015840;28;20026;-77
2023/03/18 11:29:48;;;;;;;1999.90;999.90;;;12.10;99.90;;;;;;5016275;28;20108;-86
2023/03/18 11:32:27;;;;;;;1999.90;999.90;;;12.20;99.90;;;;;;5015904;28;20030;-85
2023/03/18 11:34:58;;;;;;;1999.90;999.90;;;12.30;99.90;;;;;;5016260;28;20030;-83
2023/03/18 11:37:36;;;;;;;1999.90;999.90;;;12.20;99.90;;;;;;5015769;28;20032;-90
2023/03/18 11:40:13;;;;;;;1999.90;999.90;;;12.10;99.90;;;;;;5016751;28;20018;-84
2023/03/18 11:42:41;;;;;;;1999.90;999.90;;;11.90;99.90;;;;;;5066548;28;20026;-83
2023/03/18 11:45:24;;;;;;;1999.90;999.90;;;11.90;99.90;;;;;;5035138;28;20056;-82
2023/03/18 11:47:50;;;;;;;1999.90;999.90;;;11.80;99.90;;;;;;4996063;28;20046;-86
2023/03/18 11:50:25;;;;;;;1999.90;999.90;;;11.70;99.90;;;;;;4996306;28;20542;-81
2023/03/18 11:53:24;;;;;;;1999.90;999.90;;;11.70;99.90;;;;;;4995891;28;20133;-81
2023/03/18 11:56:09;;;;;;;1999.90;999.90;;;11.60;99.90;;;;;;4995707;28;20569;-87
2023/03/18 11:58:53;;;;;;;1999.90;999.90;;;11.60;99.90;;;;;;4996479;28;20026;-84
2023/03/18 12:01:32;;;;;;;1999.90;999.90;;;11.50;99.90;;;;;;5027366;28;20034;-80
2023/03/18 12:04:18;;;;;;;1999.90;999.90;;;11.40;99.90;;;;;;4995792;28;20036;-79
2023/03/18 12:07:23;;;;;;;1999.90;999.90;;;11.50;99.90;;;;;;4995682;28;20023;-78
2023/03/18 12:10:19;;;;;;;1999.90;999.90;;;11.50;99.90;;;;;;5028394;28;20756;-83
2023/03/18 12:13:10;;;;;;;1999.90;999.90;;;11.50;99.90;;;;;;5015114;28;20025;-82